createdAt,value
2018-07-08T00:00:38.775Z,92.30
2018-07-08T00:01:38.763Z,91.91
2018-07-08T00:02:38.754Z,92.10
2018-07-08T00:03:38.753Z,92.68
2018-07-08T00:04:38.960Z,92.77
2018-07-08T00:05:38.758Z,92.77
2018-07-08T00:06:38.777Z,93.16
2018-07-08T00:07:38.983Z,93.63
2018-07-08T00:08:38.763Z,93.54
2018-07-08T00:09:38.767Z,93.16
2018-07-08T00:10:38.788Z,93.06
2018-07-08T00:11:38.781Z,93.83
2018-07-08T00:12:38.773Z,93.54
2018-07-08T00:13:38.775Z,94.26
2018-07-08T00:14:38.997Z,94.45
2018-07-08T00:15:38.777Z,95.03
2018-07-08T00:16:38.780Z,94.07
2018-07-08T00:17:38.792Z,95.70
2018-07-08T00:18:38.784Z,94.84
2018-07-08T00:19:38.792Z,94.74
2018-07-08T00:20:38.992Z,94.74
2018-07-08T00:21:38.792Z,95.22
2018-07-08T00:22:38.793Z,95.12
2018-07-08T00:23:38.795Z,94.93
2018-07-08T00:24:38.799Z,95.31
2018-07-08T00:25:38.825Z,94.84
2018-07-08T00:26:38.800Z,96.08
2018-07-08T00:27:38.803Z,95.98
2018-07-08T00:28:39.009Z,95.12
2018-07-08T00:29:38.831Z,95.22
2018-07-08T00:30:38.807Z,95.03
2018-07-08T00:31:38.809Z,95.89
2018-07-08T00:32:38.811Z,94.84
2018-07-08T00:33:38.824Z,95.03
2018-07-08T00:34:38.814Z,95.03
2018-07-08T00:35:38.818Z,95.89
2018-07-08T00:36:38.818Z,95.12
2018-07-08T00:37:38.822Z,94.74
2018-07-08T00:38:38.824Z,95.22
2018-07-08T00:39:38.826Z,95.60
2018-07-08T00:40:38.826Z,95.51
2018-07-08T00:41:38.829Z,95.51
2018-07-08T00:42:38.834Z,95.89
2018-07-08T00:43:38.830Z,96.75
2018-07-08T00:44:38.837Z,96.08
2018-07-08T00:45:38.837Z,95.89
2018-07-08T00:46:38.847Z,96.37
2018-07-08T00:47:38.849Z,96.32
2018-07-08T00:48:38.841Z,97.09
2018-07-08T00:49:38.840Z,97.56
2018-07-08T00:50:38.845Z,97.95
2018-07-08T00:51:38.845Z,99.10
2018-07-08T00:52:38.846Z,99.62
2018-07-08T00:53:38.848Z,99.24
2018-07-08T00:54:39.065Z,99.99
2018-07-08T00:55:39.057Z,99.99
2018-07-08T00:56:38.870Z,99.99
2018-07-08T00:57:38.866Z,99.99
2018-07-08T00:58:38.866Z,99.99
2018-07-08T00:59:38.860Z,99.99
2018-07-08T01:00:38.870Z,99.99
2018-07-08T01:01:38.914Z,99.99
2018-07-08T01:02:38.864Z,99.99
2018-07-08T01:03:38.869Z,99.99
2018-07-08T01:04:38.872Z,99.99
2018-07-08T01:05:38.867Z,99.99
2018-07-08T01:06:38.871Z,99.99
2018-07-08T01:07:38.876Z,99.99
2018-07-08T01:08:39.136Z,99.99
2018-07-08T01:09:38.873Z,99.99
2018-07-08T01:10:38.889Z,99.99
2018-07-08T01:11:38.877Z,99.99
2018-07-08T01:12:38.891Z,99.99
2018-07-08T01:13:38.885Z,99.99
2018-07-08T01:14:38.885Z,99.99
2018-07-08T01:15:38.889Z,99.99
2018-07-08T01:16:38.886Z,99.99
2018-07-08T01:17:39.113Z,99.99
2018-07-08T01:18:38.913Z,99.99
2018-07-08T01:19:39.091Z,99.99
2018-07-08T01:20:38.894Z,99.99
2018-07-08T01:21:38.924Z,99.99
2018-07-08T01:22:38.906Z,99.99
2018-07-08T01:23:38.898Z,99.99
2018-07-08T01:24:39.100Z,99.99
2018-07-08T01:25:39.113Z,99.99
2018-07-08T01:26:38.902Z,99.99
2018-07-08T01:27:39.109Z,99.99
2018-07-08T01:28:38.916Z,99.99
2018-07-08T01:29:38.906Z,99.99
2018-07-08T01:30:38.909Z,99.99
2018-07-08T01:31:38.908Z,99.99
2018-07-08T01:32:39.115Z,99.99
2018-07-08T01:33:38.914Z,99.99
2018-07-08T01:34:39.116Z,99.99
2018-07-08T01:35:38.925Z,99.99
2018-07-08T01:36:38.927Z,99.99
2018-07-08T01:37:38.926Z,99.99
2018-07-08T01:38:39.134Z,99.99
2018-07-08T01:39:38.933Z,99.99
2018-07-08T01:40:38.934Z,99.99
2018-07-08T01:41:38.925Z,99.99
2018-07-08T01:42:38.938Z,99.99
2018-07-08T01:43:39.142Z,99.99
2018-07-08T01:44:38.942Z,99.99
2018-07-08T01:45:38.932Z,99.99
2018-07-08T01:46:39.144Z,99.99
2018-07-08T01:47:38.946Z,99.99
2018-07-08T01:48:38.967Z,99.99
2018-07-08T01:49:38.961Z,99.99
2018-07-08T01:50:39.165Z,99.99
2018-07-08T01:51:38.956Z,99.99
2018-07-08T01:52:38.956Z,99.99
2018-07-08T01:53:38.946Z,99.99
2018-07-08T01:54:39.145Z,99.99
2018-07-08T01:55:38.945Z,99.99
2018-07-08T01:56:38.957Z,99.99
2018-07-08T01:57:38.963Z,99.99
2018-07-08T01:58:38.950Z,99.99
2018-07-08T01:59:38.950Z,99.99
2018-07-08T02:00:38.966Z,99.99
2018-07-08T02:01:38.954Z,99.99
2018-07-08T02:02:38.965Z,99.99
2018-07-08T02:03:38.957Z,99.99
2018-07-08T02:04:38.973Z,99.99
2018-07-08T02:05:38.977Z,99.99
2018-07-08T02:06:38.972Z,99.99
2018-07-08T02:07:39.165Z,99.99
2018-07-08T02:08:38.977Z,99.99
2018-07-08T02:09:39.199Z,99.99
2018-07-08T02:10:38.967Z,99.99
2018-07-08T02:11:38.971Z,99.99
2018-07-08T02:12:39.174Z,99.99
2018-07-08T02:13:38.984Z,99.99
2018-07-08T02:14:38.998Z,99.99
2018-07-08T02:15:38.975Z,99.99
2018-07-08T02:16:38.976Z,99.99
2018-07-08T02:17:38.976Z,99.99
2018-07-08T02:18:38.979Z,99.99
2018-07-08T02:19:39.195Z,99.99
2018-07-08T02:20:38.981Z,99.99
2018-07-08T02:21:38.985Z,99.99
2018-07-08T02:22:38.995Z,99.99
2018-07-08T02:23:39.189Z,99.99
2018-07-08T02:24:39.211Z,99.99
2018-07-08T02:25:39.005Z,99.99
2018-07-08T02:26:39.192Z,99.99
2018-07-08T02:27:39.003Z,99.99
2018-07-08T02:28:39.005Z,99.99
2018-07-08T02:29:38.992Z,99.99
2018-07-08T02:30:38.992Z,99.99
2018-07-08T02:31:39.004Z,99.99
2018-07-08T02:32:39.008Z,99.99
2018-07-08T02:33:39.228Z,99.99
2018-07-08T02:34:38.998Z,99.99
2018-07-08T02:35:39.000Z,99.99
2018-07-08T02:36:39.017Z,99.99
2018-07-08T02:37:39.035Z,99.99
2018-07-08T02:38:39.013Z,99.99
2018-07-08T02:39:39.209Z,99.99
2018-07-08T02:40:39.023Z,99.99
2018-07-08T02:41:39.009Z,99.99
2018-07-08T02:42:39.012Z,99.99
2018-07-08T02:43:39.009Z,99.99
2018-07-08T02:44:39.227Z,99.99
2018-07-08T02:45:39.023Z,99.99
2018-07-08T02:46:39.013Z,99.99
2018-07-08T02:47:39.023Z,99.99
2018-07-08T02:48:39.013Z,99.99
2018-07-08T02:49:39.226Z,99.99
2018-07-08T02:50:39.026Z,99.99
2018-07-08T02:51:39.019Z,99.99
2018-07-08T02:52:39.221Z,99.99
2018-07-08T02:53:39.235Z,99.99
2018-07-08T02:54:39.223Z,99.99
2018-07-08T02:55:39.035Z,99.99
2018-07-08T02:56:39.022Z,99.99
2018-07-08T02:57:39.095Z,99.99
2018-07-08T02:58:39.226Z,99.99
2018-07-08T02:59:39.040Z,99.99
2018-07-08T03:00:39.024Z,99.99
2018-07-08T03:01:39.230Z,99.99
2018-07-08T03:02:39.232Z,99.99
2018-07-08T03:03:39.044Z,99.99
2018-07-08T03:04:39.030Z,99.99
2018-07-08T03:05:39.040Z,99.99
2018-07-08T03:06:39.032Z,99.99
2018-07-08T03:07:39.042Z,99.99
2018-07-08T03:08:39.048Z,99.99
2018-07-08T03:09:39.049Z,99.99
2018-07-08T03:10:39.034Z,99.99
2018-07-08T03:11:39.038Z,99.99
2018-07-08T03:12:39.049Z,99.99
2018-07-08T03:13:39.047Z,99.99
2018-07-08T03:14:39.037Z,99.99
2018-07-08T03:15:39.260Z,99.99
2018-07-08T03:16:39.039Z,99.99
2018-07-08T03:17:39.242Z,99.99
2018-07-08T03:18:39.049Z,99.99
2018-07-08T03:19:39.042Z,99.99
2018-07-08T03:20:39.052Z,99.99
2018-07-08T03:21:39.243Z,99.99
2018-07-08T03:22:39.042Z,99.99
2018-07-08T03:23:39.043Z,99.99
2018-07-08T03:24:39.053Z,99.99
2018-07-08T03:25:39.055Z,99.99
2018-07-08T03:26:39.051Z,99.99
2018-07-08T03:27:39.046Z,99.99
2018-07-08T03:28:39.251Z,99.99
2018-07-08T03:29:39.059Z,99.99
2018-07-08T03:30:39.048Z,99.99
2018-07-08T03:31:39.251Z,99.99
2018-07-08T03:32:39.058Z,99.99
2018-07-08T03:33:39.051Z,99.99
2018-07-08T03:34:39.076Z,99.99
2018-07-08T03:35:39.269Z,99.99
2018-07-08T03:36:39.069Z,99.99
2018-07-08T03:37:39.257Z,99.99
2018-07-08T03:38:39.052Z,99.99
2018-07-08T03:39:39.055Z,99.99
2018-07-08T03:40:39.067Z,99.99
2018-07-08T03:41:39.059Z,99.99
2018-07-08T03:42:39.066Z,99.99
2018-07-08T03:43:39.283Z,99.99
2018-07-08T03:44:39.059Z,99.99
2018-07-08T03:45:39.058Z,99.99
2018-07-08T03:46:39.109Z,99.99
2018-07-08T03:47:39.060Z,99.99
2018-07-08T03:48:39.073Z,99.99
2018-07-08T03:49:39.261Z,99.99
2018-07-08T03:50:39.076Z,99.99
2018-07-08T03:51:39.274Z,99.99
2018-07-08T03:52:39.075Z,99.99
2018-07-08T03:53:39.265Z,99.99
2018-07-08T03:54:39.080Z,99.99
2018-07-08T03:55:39.268Z,99.99
2018-07-08T03:56:39.065Z,99.99
2018-07-08T03:57:39.283Z,99.99
2018-07-08T03:58:39.066Z,99.99
2018-07-08T03:59:39.079Z,99.99
2018-07-08T04:00:39.067Z,99.99
2018-07-08T04:01:39.070Z,99.99
2018-07-08T04:02:39.076Z,99.99
2018-07-08T04:03:39.078Z,99.99
2018-07-08T04:04:39.277Z,99.99
2018-07-08T04:05:39.068Z,99.99
2018-07-08T04:06:39.081Z,99.99
2018-07-08T04:07:39.069Z,99.99
2018-07-08T04:08:39.273Z,99.99
2018-07-08T04:09:39.081Z,99.99
2018-07-08T04:10:39.072Z,99.99
2018-07-08T04:11:39.277Z,99.99
2018-07-08T04:12:39.086Z,99.99
2018-07-08T04:13:39.085Z,99.99
2018-07-08T04:14:39.287Z,99.99
2018-07-08T04:15:39.307Z,99.99
2018-07-08T04:16:39.278Z,99.99
2018-07-08T04:17:39.078Z,99.99
2018-07-08T04:18:39.080Z,99.99
2018-07-08T04:19:39.087Z,99.99
2018-07-08T04:20:39.092Z,99.99
2018-07-08T04:21:39.281Z,99.99
2018-07-08T04:22:39.090Z,99.99
2018-07-08T04:23:39.079Z,99.99
2018-07-08T04:24:39.284Z,99.99
2018-07-08T04:25:39.295Z,99.99
2018-07-08T04:26:39.080Z,99.99
2018-07-08T04:27:39.084Z,99.99
2018-07-08T04:28:39.098Z,99.99
2018-07-08T04:29:39.083Z,99.99
2018-07-08T04:30:39.083Z,99.99
2018-07-08T04:31:39.298Z,99.99
2018-07-08T04:32:39.087Z,99.99
2018-07-08T04:33:39.089Z,99.99
2018-07-08T04:34:39.084Z,99.99
2018-07-08T04:35:39.102Z,99.99
2018-07-08T04:36:39.090Z,99.99
2018-07-08T04:37:39.101Z,99.99
2018-07-08T04:38:39.291Z,99.99
2018-07-08T04:39:39.087Z,99.99
2018-07-08T04:40:39.089Z,99.99
2018-07-08T04:41:39.088Z,99.99
2018-07-08T04:42:39.090Z,99.99
2018-07-08T04:43:39.093Z,99.99
2018-07-08T04:44:39.104Z,99.99
2018-07-08T04:45:39.305Z,99.99
2018-07-08T04:46:39.093Z,99.99
2018-07-08T04:47:39.092Z,99.99
2018-07-08T04:48:39.103Z,99.99
2018-07-08T04:49:39.297Z,99.99
2018-07-08T04:50:39.094Z,99.99
2018-07-08T04:51:39.302Z,99.99
2018-07-08T04:52:39.311Z,99.99
2018-07-08T04:53:39.108Z,99.99
2018-07-08T04:54:39.118Z,99.99
2018-07-08T04:55:39.103Z,99.99
2018-07-08T04:56:39.313Z,99.99
2018-07-08T04:57:39.127Z,99.99
2018-07-08T04:58:39.113Z,99.99
2018-07-08T04:59:39.111Z,99.99
2018-07-08T05:00:39.133Z,99.99
2018-07-08T05:01:39.161Z,99.99
2018-07-08T05:02:39.101Z,99.99
2018-07-08T05:03:39.102Z,99.99
2018-07-08T05:04:39.104Z,99.99
2018-07-08T05:05:39.309Z,99.99
2018-07-08T05:06:39.216Z,99.99
2018-07-08T05:07:39.317Z,99.99
2018-07-08T05:08:39.104Z,99.99
2018-07-08T05:09:39.117Z,99.99
2018-07-08T05:10:39.322Z,99.99
2018-07-08T05:11:39.107Z,99.99
2018-07-08T05:12:39.110Z,99.99
2018-07-08T05:13:39.110Z,99.99
2018-07-08T05:14:39.106Z,99.99
2018-07-08T05:15:39.110Z,99.99
2018-07-08T05:16:39.120Z,99.99
2018-07-08T05:17:39.111Z,99.99
2018-07-08T05:18:39.332Z,99.99
2018-07-08T05:19:39.113Z,99.99
2018-07-08T05:20:39.134Z,99.99
2018-07-08T05:21:39.122Z,99.99
2018-07-08T05:22:39.336Z,99.99
2018-07-08T05:23:39.118Z,99.99
2018-07-08T05:24:39.119Z,99.99
2018-07-08T05:25:39.115Z,99.99
2018-07-08T05:26:39.124Z,99.99
2018-07-08T05:27:39.325Z,99.99
2018-07-08T05:28:39.115Z,99.99
2018-07-08T05:29:39.116Z,99.99
2018-07-08T05:30:39.130Z,99.99
2018-07-08T05:31:39.134Z,99.99
2018-07-08T05:32:39.129Z,99.99
2018-07-08T05:33:39.133Z,99.99
2018-07-08T05:34:39.119Z,99.99
2018-07-08T05:35:39.130Z,99.99
2018-07-08T05:36:39.326Z,99.99
2018-07-08T05:37:39.122Z,99.99
2018-07-08T05:38:39.328Z,99.99
2018-07-08T05:39:39.340Z,99.99
2018-07-08T05:40:39.330Z,99.99
2018-07-08T05:41:39.125Z,99.99
2018-07-08T05:42:39.139Z,99.99
2018-07-08T05:43:39.155Z,99.99
2018-07-08T05:44:39.145Z,99.99
2018-07-08T05:45:39.345Z,99.99
2018-07-08T05:46:39.129Z,99.99
2018-07-08T05:47:39.140Z,99.99
2018-07-08T05:48:39.140Z,99.99
2018-07-08T05:49:39.137Z,99.99
2018-07-08T05:50:39.198Z,99.99
2018-07-08T05:51:39.146Z,99.99
2018-07-08T05:52:39.145Z,99.99
2018-07-08T05:53:39.134Z,99.99
2018-07-08T05:54:39.139Z,99.99
2018-07-08T05:55:39.341Z,99.99
2018-07-08T05:56:39.142Z,99.99
2018-07-08T05:57:39.139Z,99.99
2018-07-08T05:58:39.141Z,99.99
2018-07-08T05:59:39.141Z,99.99
2018-07-08T06:00:39.142Z,99.99
2018-07-08T06:01:39.156Z,99.99
2018-07-08T06:02:39.142Z,99.99
2018-07-08T06:03:39.347Z,99.99
2018-07-08T06:04:39.183Z,99.99
2018-07-08T06:05:39.151Z,99.99
2018-07-08T06:06:39.375Z,99.99
2018-07-08T06:07:39.159Z,99.99
2018-07-08T06:08:39.149Z,99.99
2018-07-08T06:09:39.364Z,99.99
2018-07-08T06:10:39.163Z,99.99
2018-07-08T06:11:39.367Z,99.99
2018-07-08T06:12:39.152Z,99.99
2018-07-08T06:13:39.154Z,99.99
2018-07-08T06:14:39.153Z,99.99
2018-07-08T06:15:39.168Z,99.99
2018-07-08T06:16:39.157Z,99.99
2018-07-08T06:17:39.160Z,99.99
2018-07-08T06:18:39.171Z,99.99
2018-07-08T06:19:39.174Z,99.99
2018-07-08T06:20:39.172Z,99.99
2018-07-08T06:21:39.364Z,99.99
2018-07-08T06:22:39.164Z,99.99
2018-07-08T06:23:39.179Z,99.99
2018-07-08T06:24:39.165Z,99.99
2018-07-08T06:25:39.165Z,99.15
2018-07-08T06:26:39.367Z,98.62
2018-07-08T06:27:39.168Z,97.85
2018-07-08T06:28:39.175Z,97.76
2018-07-08T06:29:39.169Z,98.72
2018-07-08T06:30:39.381Z,97.85
2018-07-08T06:31:39.199Z,95.07
2018-07-08T06:32:39.171Z,96.70
2018-07-08T06:33:39.381Z,97.28
2018-07-08T06:34:39.171Z,96.03
2018-07-08T06:35:39.388Z,97.47
2018-07-08T06:36:39.176Z,97.38
2018-07-08T06:37:39.177Z,97.95
2018-07-08T06:38:39.379Z,98.05
2018-07-08T06:39:39.194Z,99.68
2018-07-08T06:40:39.190Z,97.71
2018-07-08T06:41:39.190Z,97.14
2018-07-08T06:42:39.195Z,97.23
2018-07-08T06:43:39.181Z,96.27
2018-07-08T06:44:39.186Z,94.84
2018-07-08T06:45:39.253Z,93.59
2018-07-08T06:46:39.186Z,93.78
2018-07-08T06:47:39.185Z,95.12
2018-07-08T06:48:39.197Z,93.30
2018-07-08T06:49:39.198Z,93.21
2018-07-08T06:50:39.190Z,92.54
2018-07-08T06:51:39.192Z,91.48
2018-07-08T06:52:39.221Z,90.90
2018-07-08T06:53:39.206Z,91.67
2018-07-08T06:54:39.207Z,92.91
2018-07-08T06:55:39.195Z,93.01
2018-07-08T06:56:39.196Z,90.95
2018-07-08T06:57:39.416Z,90.71
2018-07-08T06:58:39.404Z,90.85
2018-07-08T06:59:39.202Z,89.27
2018-07-08T07:00:39.202Z,90.04
2018-07-08T07:01:39.204Z,89.08
2018-07-08T07:02:39.219Z,88.51
2018-07-08T07:03:39.216Z,88.41
2018-07-08T07:04:39.207Z,90.42
2018-07-08T07:05:39.222Z,91.28
2018-07-08T07:06:39.225Z,90.81
2018-07-08T07:07:39.238Z,91.09
2018-07-08T07:08:39.236Z,90.14
2018-07-08T07:09:39.226Z,92.00
2018-07-08T07:10:39.242Z,91.62
2018-07-08T07:11:39.243Z,93.44
2018-07-08T07:12:39.219Z,91.91
2018-07-08T07:13:39.223Z,89.99
2018-07-08T07:14:39.236Z,90.66
2018-07-08T07:15:39.228Z,86.92
2018-07-08T07:16:39.235Z,87.21
2018-07-08T07:17:39.227Z,87.49
2018-07-08T07:18:39.226Z,85.48
2018-07-08T07:19:39.228Z,85.19
2018-07-08T07:20:39.243Z,85.10
2018-07-08T07:21:39.232Z,84.91
2018-07-08T07:22:39.234Z,84.91
2018-07-08T07:23:39.235Z,84.04
2018-07-08T07:24:39.246Z,84.91
2018-07-08T07:25:39.238Z,85.77
2018-07-08T07:26:39.242Z,86.54
2018-07-08T07:27:39.243Z,85.00
2018-07-08T07:28:39.249Z,85.58
2018-07-08T07:29:39.447Z,85.19
2018-07-08T07:30:39.244Z,85.86
2018-07-08T07:31:39.257Z,86.05
2018-07-08T07:32:39.250Z,85.58
2018-07-08T07:33:39.455Z,86.15
2018-07-08T07:34:39.256Z,84.52
2018-07-08T07:35:39.255Z,83.56
2018-07-08T07:36:39.258Z,83.03
2018-07-08T07:37:39.466Z,81.40
2018-07-08T07:38:39.259Z,81.30
2018-07-08T07:39:39.263Z,81.97
2018-07-08T07:40:39.276Z,82.35
2018-07-08T07:41:39.473Z,82.54
2018-07-08T07:42:39.277Z,84.56
2018-07-08T07:43:39.471Z,84.75
2018-07-08T07:44:39.471Z,85.24
2018-07-08T07:45:39.271Z,84.56
2018-07-08T07:46:39.274Z,82.93
2018-07-08T07:47:39.276Z,82.35
2018-07-08T07:48:39.276Z,82.26
2018-07-08T07:49:39.479Z,82.16
2018-07-08T07:50:39.278Z,81.20
2018-07-08T07:51:39.281Z,81.10
2018-07-08T07:52:39.282Z,81.87
2018-07-08T07:53:39.306Z,82.35
2018-07-08T07:54:39.287Z,81.10
2018-07-08T07:55:39.492Z,81.49
2018-07-08T07:56:39.289Z,80.73
2018-07-08T07:57:39.301Z,81.87
2018-07-08T07:58:39.496Z,80.53
2018-07-08T07:59:39.501Z,80.63
2018-07-08T08:00:39.295Z,81.34
2018-07-08T08:01:39.297Z,81.97
2018-07-08T08:02:39.299Z,82.40
2018-07-08T08:03:39.303Z,82.45
2018-07-08T08:04:39.312Z,82.10
2018-07-08T08:05:39.304Z,80.38
2018-07-08T08:06:39.521Z,80.86
2018-07-08T08:07:39.325Z,79.03
2018-07-08T08:08:39.320Z,78.08
2018-07-08T08:09:39.516Z,77.59
2018-07-08T08:10:39.318Z,78.08
2018-07-08T08:11:39.329Z,78.17
2018-07-08T08:12:39.533Z,78.94
2018-07-08T08:13:39.536Z,77.21
2018-07-08T08:14:39.349Z,77.78
2018-07-08T08:15:39.339Z,78.27
2018-07-08T08:16:39.328Z,76.64
2018-07-08T08:17:39.531Z,75.96
2018-07-08T08:18:39.330Z,76.54
2018-07-08T08:19:39.332Z,75.57
2018-07-08T08:20:39.333Z,76.86
2018-07-08T08:21:39.335Z,75.32
2018-07-08T08:22:39.338Z,75.81
2018-07-08T08:23:39.340Z,75.42
2018-07-08T08:24:39.344Z,76.67
2018-07-08T08:25:39.342Z,74.75
2018-07-08T08:26:39.360Z,74.85
2018-07-08T08:27:39.552Z,75.04
2018-07-08T08:28:39.352Z,74.65
2018-07-08T08:29:39.351Z,75.71
2018-07-08T08:30:39.358Z,75.32
2018-07-08T08:31:39.377Z,75.27
2018-07-08T08:32:39.397Z,75.37
2018-07-08T08:33:39.361Z,74.46
2018-07-08T08:34:39.367Z,74.27
2018-07-08T08:35:39.365Z,73.98
2018-07-08T08:36:39.367Z,73.98
2018-07-08T08:37:39.380Z,74.40
2018-07-08T08:38:39.372Z,74.40
2018-07-08T08:39:39.372Z,75.46
2018-07-08T08:40:39.374Z,76.04
2018-07-08T08:41:39.373Z,75.84
2018-07-08T08:42:39.376Z,76.65
2018-07-08T08:43:39.382Z,76.56
2018-07-08T08:44:39.585Z,75.11
2018-07-08T08:45:39.398Z,74.44
2018-07-08T08:46:39.400Z,72.03
2018-07-08T08:47:39.390Z,72.19
2018-07-08T08:48:39.604Z,72.67
2018-07-08T08:49:39.601Z,74.11
2018-07-08T08:50:39.401Z,73.44
2018-07-08T08:51:39.602Z,72.58
2018-07-08T08:52:39.411Z,70.56
2018-07-08T08:53:39.605Z,69.02
2018-07-08T08:54:39.406Z,70.37
2018-07-08T08:55:39.619Z,69.79
2018-07-08T08:56:39.412Z,70.75
2018-07-08T08:57:39.421Z,70.65
2018-07-08T08:58:39.414Z,71.42
2018-07-08T08:59:39.415Z,70.40
2018-07-08T09:00:39.431Z,68.96
2018-07-08T09:01:39.639Z,67.90
2018-07-08T09:02:39.433Z,69.02
2018-07-08T09:03:39.456Z,65.17
2018-07-08T09:04:39.439Z,64.50
2018-07-08T09:05:39.429Z,65.75
2018-07-08T09:06:39.434Z,65.56
2018-07-08T09:07:39.432Z,66.17
2018-07-08T09:08:39.460Z,66.14
2018-07-08T09:09:39.442Z,67.03
2018-07-08T09:10:39.497Z,68.57
2018-07-08T09:11:39.443Z,68.29
2018-07-08T09:12:39.446Z,67.61
2018-07-08T09:13:39.447Z,67.22
2018-07-08T09:14:39.652Z,66.55
2018-07-08T09:15:39.450Z,68.38
2018-07-08T09:16:39.464Z,69.24
2018-07-08T09:17:39.467Z,69.63
2018-07-08T09:18:39.467Z,70.59
2018-07-08T09:19:39.459Z,70.01
2018-07-08T09:20:39.465Z,69.53
2018-07-08T09:21:39.475Z,69.63
2018-07-08T09:22:39.682Z,69.82
2018-07-08T09:23:39.484Z,69.67
2018-07-08T09:24:39.484Z,67.51
2018-07-08T09:25:39.473Z,67.93
2018-07-08T09:26:39.479Z,67.93
2018-07-08T09:27:39.685Z,66.01
2018-07-08T09:28:39.505Z,66.49
2018-07-08T09:29:39.495Z,67.55
2018-07-08T09:30:39.688Z,67.07
2018-07-08T09:31:39.489Z,66.30
2018-07-08T09:32:39.520Z,66.58
2018-07-08T09:33:39.704Z,66.78
2018-07-08T09:34:39.497Z,69.28
2018-07-08T09:35:39.496Z,67.74
2018-07-08T09:36:39.527Z,68.41
2018-07-08T09:37:39.532Z,68.13
2018-07-08T09:38:39.594Z,66.10
2018-07-08T09:39:39.518Z,66.68
2018-07-08T09:40:39.513Z,67.26
2018-07-08T09:41:39.556Z,66.39
2018-07-08T09:42:39.517Z,66.58
2018-07-08T09:43:39.721Z,66.97
2018-07-08T09:44:39.521Z,64.95
2018-07-08T09:45:39.539Z,65.81
2018-07-08T09:46:39.548Z,67.07
2018-07-08T09:47:39.530Z,64.95
2018-07-08T09:48:39.532Z,65.14
2018-07-08T09:49:39.536Z,66.14
2018-07-08T09:50:39.535Z,64.79
2018-07-08T09:51:39.537Z,65.17
2018-07-08T09:52:39.604Z,64.37
2018-07-08T09:53:39.541Z,63.89
2018-07-08T09:54:39.549Z,63.99
2018-07-08T09:55:39.549Z,64.50
2018-07-08T09:56:39.551Z,61.90
2018-07-08T09:57:39.567Z,61.42
2018-07-08T09:58:39.574Z,63.73
2018-07-08T09:59:39.563Z,64.34
2018-07-08T10:00:39.764Z,61.80
2018-07-08T10:01:39.561Z,61.42
2018-07-08T10:02:39.566Z,60.75
2018-07-08T10:03:39.572Z,61.16
2018-07-08T10:04:39.894Z,61.35
2018-07-08T10:05:39.574Z,62.03
2018-07-08T10:06:39.586Z,60.77
2018-07-08T10:07:39.593Z,61.42
2018-07-08T10:08:39.620Z,62.29
2018-07-08T10:09:39.587Z,60.36
2018-07-08T10:10:39.590Z,61.35
2018-07-08T10:11:39.593Z,61.16
2018-07-08T10:12:39.609Z,61.25
2018-07-08T10:13:39.603Z,61.45
2018-07-08T10:14:39.801Z,62.51
2018-07-08T10:15:39.610Z,62.51
2018-07-08T10:16:39.604Z,62.03
2018-07-08T10:17:39.619Z,62.03
2018-07-08T10:18:39.625Z,60.87
2018-07-08T10:19:39.920Z,61.55
2018-07-08T10:20:39.627Z,61.35
2018-07-08T10:21:39.629Z,61.25
2018-07-08T10:22:39.622Z,60.49
2018-07-08T10:23:39.623Z,59.52
2018-07-08T10:24:39.626Z,60.49
2018-07-08T10:25:39.625Z,60.39
2018-07-08T10:26:39.660Z,60.49
2018-07-08T10:27:39.837Z,61.45
2018-07-08T10:28:39.644Z,60.49
2018-07-08T10:29:39.637Z,61.96
2018-07-08T10:30:39.651Z,60.23
2018-07-08T10:31:39.847Z,59.27
2018-07-08T10:32:39.676Z,60.20
2018-07-08T10:33:39.651Z,60.10
2018-07-08T10:34:39.651Z,59.81
2018-07-08T10:35:39.657Z,60.61
2018-07-08T10:36:39.702Z,60.87
2018-07-08T10:37:39.675Z,62.15
2018-07-08T10:38:39.663Z,61.96
2018-07-08T10:39:39.669Z,59.94
2018-07-08T10:40:39.668Z,60.03
2018-07-08T10:41:39.669Z,61.38
2018-07-08T10:42:39.687Z,61.19
2018-07-08T10:43:39.676Z,60.52
2018-07-08T10:44:39.678Z,61.38
2018-07-08T10:45:39.684Z,61.38
2018-07-08T10:46:39.712Z,61.58
2018-07-08T10:47:39.697Z,61.19
2018-07-08T10:48:39.690Z,61.13
2018-07-08T10:49:39.694Z,61.51
2018-07-08T10:50:39.711Z,61.38
2018-07-08T10:51:39.710Z,61.58
2018-07-08T10:52:39.907Z,60.52
2018-07-08T10:53:39.910Z,60.32
2018-07-08T10:54:39.711Z,60.90
2018-07-08T10:55:39.926Z,61.19
2018-07-08T10:56:39.717Z,61.10
2018-07-08T10:57:39.717Z,61.96
2018-07-08T10:58:39.736Z,61.38
2018-07-08T10:59:39.735Z,63.12
2018-07-08T11:00:39.742Z,63.41
2018-07-08T11:01:39.747Z,63.31
2018-07-08T11:02:39.744Z,64.76
2018-07-08T11:03:39.758Z,64.37
2018-07-08T11:04:39.751Z,63.98
2018-07-08T11:05:39.743Z,63.70
2018-07-08T11:06:39.745Z,63.21
2018-07-08T11:07:39.749Z,64.95
2018-07-08T11:08:39.780Z,63.12
2018-07-08T11:09:39.758Z,63.15
2018-07-08T11:10:39.803Z,63.24
2018-07-08T11:11:39.776Z,62.96
2018-07-08T11:12:39.784Z,62.57
2018-07-08T11:13:39.778Z,63.24
2018-07-08T11:14:39.769Z,63.06
2018-07-08T11:15:39.782Z,62.09
2018-07-08T11:16:39.777Z,64.02
2018-07-08T11:17:39.777Z,63.95
2018-07-08T11:18:39.794Z,63.44
2018-07-08T11:19:39.787Z,64.92
2018-07-08T11:20:39.915Z,64.15
2018-07-08T11:21:39.791Z,64.24
2018-07-08T11:22:39.795Z,63.95
2018-07-08T11:23:39.814Z,64.15
2018-07-08T11:24:39.804Z,63.85
2018-07-08T11:25:39.803Z,62.99
2018-07-08T11:26:39.815Z,63.09
2018-07-08T11:27:39.816Z,62.41
2018-07-08T11:28:39.882Z,63.37
2018-07-08T11:29:40.022Z,63.95
2018-07-08T11:30:40.031Z,64.72
2018-07-08T11:31:40.028Z,62.60
2018-07-08T11:32:40.034Z,63.57
2018-07-08T11:33:39.837Z,63.85
2018-07-08T11:34:39.837Z,64.43
2018-07-08T11:35:39.839Z,64.05
2018-07-08T11:36:39.845Z,64.05
2018-07-08T11:37:39.844Z,63.95
2018-07-08T11:38:39.860Z,63.57
2018-07-08T11:39:39.851Z,63.85
2018-07-08T11:40:39.875Z,63.47
2018-07-08T11:41:40.075Z,64.72
2018-07-08T11:42:40.077Z,64.63
2018-07-08T11:43:40.069Z,64.37
2018-07-08T11:44:39.869Z,63.02
2018-07-08T11:45:39.905Z,64.24
2018-07-08T11:46:39.892Z,64.56
2018-07-08T11:47:39.892Z,64.24
2018-07-08T11:48:39.885Z,64.18
2018-07-08T11:49:39.887Z,64.05
2018-07-08T11:50:39.892Z,64.08
2018-07-08T11:51:39.904Z,63.21
2018-07-08T11:52:39.900Z,62.63
2018-07-08T11:53:39.912Z,63.21
2018-07-08T11:54:39.921Z,61.77
2018-07-08T11:55:40.114Z,64.28
2018-07-08T11:56:39.916Z,62.92
2018-07-08T11:57:39.915Z,62.44
2018-07-08T11:58:39.921Z,64.37
2018-07-08T11:59:39.924Z,64.05
2018-07-08T12:00:39.939Z,64.72
2018-07-08T12:01:40.132Z,64.15
2018-07-08T12:02:39.950Z,62.92
2018-07-08T12:03:39.949Z,62.63
2018-07-08T12:04:39.943Z,62.92
2018-07-08T12:05:39.945Z,63.60
2018-07-08T12:06:39.970Z,64.01
2018-07-08T12:07:39.965Z,62.15
2018-07-08T12:08:39.971Z,62.54
2018-07-08T12:09:40.175Z,63.12
2018-07-08T12:10:40.167Z,64.18
2018-07-08T12:11:40.187Z,64.21
2018-07-08T12:12:39.974Z,62.05
2018-07-08T12:13:39.975Z,63.12
2018-07-08T12:14:40.060Z,64.56
2018-07-08T12:15:40.186Z,65.63
2018-07-08T12:16:39.988Z,65.17
2018-07-08T12:17:40.204Z,63.73
2018-07-08T12:18:40.008Z,64.01
2018-07-08T12:19:40.004Z,63.43
2018-07-08T12:20:40.020Z,61.12
2018-07-08T12:21:40.006Z,61.60
2018-07-08T12:22:40.212Z,61.89
2018-07-08T12:23:40.229Z,63.15
2018-07-08T12:24:40.019Z,64.43
2018-07-08T12:25:40.022Z,63.28
2018-07-08T12:26:40.027Z,61.99
2018-07-08T12:27:40.100Z,64.01
2018-07-08T12:28:40.039Z,62.95
2018-07-08T12:29:40.239Z,63.56
2018-07-08T12:30:40.041Z,63.85
2018-07-08T12:31:40.045Z,63.63
2018-07-08T12:32:40.063Z,62.95
2018-07-08T12:33:40.054Z,62.57
2018-07-08T12:34:40.275Z,61.89
2018-07-08T12:35:40.073Z,62.28
2018-07-08T12:36:40.118Z,61.25
2018-07-08T12:37:40.073Z,60.76
2018-07-08T12:38:40.089Z,62.12
2018-07-08T12:39:40.090Z,61.54
2018-07-08T12:40:40.284Z,61.44
2018-07-08T12:41:40.084Z,61.54
2018-07-08T12:42:40.105Z,61.73
2018-07-08T12:43:40.094Z,61.15
2018-07-08T12:44:40.552Z,60.64
2018-07-08T12:45:40.113Z,61.22
2018-07-08T12:46:40.105Z,62.18
2018-07-08T12:47:40.109Z,61.60
2018-07-08T12:48:40.113Z,63.24
2018-07-08T12:49:40.117Z,64.01
2018-07-08T12:50:40.132Z,63.82
2018-07-08T12:51:40.152Z,63.43
2018-07-08T12:52:40.141Z,62.79